Terminal Aerodrome Forecast
Issued by NWS

Home | Current Version | Previous Version | Text Only | Print | Product List | Glossary On
Versions: 1 2 3 4 5 6 7 8 9 10 11 12 13 14 15
000
FTUS42 TJSJ 291700
TAFJMZ
TAF
TJMZ 291740Z 2918/3018 24010KT P6SM VCSH SCT025 BKN040
     FM292200 06006KT P6SM SCT025 SCT040
     FM301530 27010KT P6SM SCT025 BKN040
      AMD NOT SKED 2923/3016=

USA.gov is the U.S. government's official web portal to all federal, state and local government web resources and services.